sensor_id;sensor_type;location;lat;lon;timestamp;temperature;humidity
16643;DHT22;8435;52.184;5.406;2023-07-16T00:02:15;21.10;85.50
16643;DHT22;8435;52.184;5.406;2023-07-16T00:04:41;21.10;85.40
16643;DHT22;8435;52.184;5.406;2023-07-16T00:07:15;21.10;85.30
16643;DHT22;8435;52.184;5.406;2023-07-16T00:09:45;21.00;85.30
16643;DHT22;8435;52.184;5.406;2023-07-16T00:12:12;21.00;85.20
16643;DHT22;8435;52.184;5.406;2023-07-16T00:14:39;21.00;85.00
16643;DHT22;8435;52.184;5.406;2023-07-16T00:17:05;21.00;84.80
16643;DHT22;8435;52.184;5.406;2023-07-16T00:19:32;21.00;84.70
16643;DHT22;8435;52.184;5.406;2023-07-16T00:21:59;21.00;84.70
16643;DHT22;8435;52.184;5.406;2023-07-16T00:24:28;21.00;84.60
16643;DHT22;8435;52.184;5.406;2023-07-16T00:26:55;21.00;84.50
16643;DHT22;8435;52.184;5.406;2023-07-16T00:29:22;21.00;84.40
16643;DHT22;8435;52.184;5.406;2023-07-16T00:31:49;21.00;84.30
16643;DHT22;8435;52.184;5.406;2023-07-16T00:34:15;21.00;84.30
16643;DHT22;8435;52.184;5.406;2023-07-16T00:36:42;21.00;84.30
16643;DHT22;8435;52.184;5.406;2023-07-16T00:39:10;21.00;84.30
16643;DHT22;8435;52.184;5.406;2023-07-16T00:41:39;21.00;84.30
16643;DHT22;8435;52.184;5.406;2023-07-16T00:44:06;20.90;84.10
16643;DHT22;8435;52.184;5.406;2023-07-16T00:46:33;21.00;84.10
16643;DHT22;8435;52.184;5.406;2023-07-16T00:49:00;21.00;84.10
16643;DHT22;8435;52.184;5.406;2023-07-16T00:51:28;21.00;84.10
16643;DHT22;8435;52.184;5.406;2023-07-16T00:53:55;20.90;84.10
16643;DHT22;8435;52.184;5.406;2023-07-16T00:56:22;20.90;84.00
16643;DHT22;8435;52.184;5.406;2023-07-16T00:58:53;21.00;84.10
16643;DHT22;8435;52.184;5.406;2023-07-16T01:01:20;20.90;84.10
16643;DHT22;8435;52.184;5.406;2023-07-16T01:03:47;20.90;84.10
16643;DHT22;8435;52.184;5.406;2023-07-16T01:06:18;20.90;84.10
16643;DHT22;8435;52.184;5.406;2023-07-16T01:08:54;20.90;84.20
16643;DHT22;8435;52.184;5.406;2023-07-16T01:11:24;20.90;84.20
16643;DHT22;8435;52.184;5.406;2023-07-16T01:13:53;20.80;84.20
16643;DHT22;8435;52.184;5.406;2023-07-16T01:16:22;20.80;84.20
16643;DHT22;8435;52.184;5.406;2023-07-16T01:18:50;20.80;84.30
16643;DHT22;8435;52.184;5.406;2023-07-16T01:21:19;20.80;84.30
16643;DHT22;8435;52.184;5.406;2023-07-16T01:24:02;20.80;84.50
16643;DHT22;8435;52.184;5.406;2023-07-16T01:26:39;20.80;84.70
16643;DHT22;8435;52.184;5.406;2023-07-16T01:29:36;20.70;84.70
16643;DHT22;8435;52.184;5.406;2023-07-16T01:32:05;20.70;84.90
16643;DHT22;8435;52.184;5.406;2023-07-16T01:34:34;20.70;84.90
16643;DHT22;8435;52.184;5.406;2023-07-16T01:37:02;20.70;85.00
16643;DHT22;8435;52.184;5.406;2023-07-16T01:39:29;20.70;85.10
16643;DHT22;8435;52.184;5.406;2023-07-16T01:42:02;20.70;85.30
16643;DHT22;8435;52.184;5.406;2023-07-16T01:44:30;20.60;85.40
16643;DHT22;8435;52.184;5.406;2023-07-16T01:47:08;20.60;85.40
16643;DHT22;8435;52.184;5.406;2023-07-16T01:49:34;20.60;85.50
16643;DHT22;8435;52.184;5.406;2023-07-16T01:52:03;20.60;85.60
16643;DHT22;8435;52.184;5.406;2023-07-16T01:54:30;20.60;85.70
16643;DHT22;8435;52.184;5.406;2023-07-16T01:56:57;20.60;85.80
16643;DHT22;8435;52.184;5.406;2023-07-16T01:59:24;20.60;85.90
16643;DHT22;8435;52.184;5.406;2023-07-16T02:01:52;20.50;86.50
16643;DHT22;8435;52.184;5.406;2023-07-16T02:04:20;20.50;86.00
16643;DHT22;8435;52.184;5.406;2023-07-16T02:06:46;20.50;86.10
16643;DHT22;8435;52.184;5.406;2023-07-16T02:09:14;20.50;86.10
16643;DHT22;8435;52.184;5.406;2023-07-16T02:11:41;20.50;86.30
16643;DHT22;8435;52.184;5.406;2023-07-16T02:14:08;20.50;86.30
16643;DHT22;8435;52.184;5.406;2023-07-16T02:16:35;20.50;86.50
16643;DHT22;8435;52.184;5.406;2023-07-16T02:19:03;20.50;86.60
16643;DHT22;8435;52.184;5.406;2023-07-16T02:21:32;20.50;86.80
16643;DHT22;8435;52.184;5.406;2023-07-16T02:23:59;20.50;86.90
16643;DHT22;8435;52.184;5.406;2023-07-16T02:26:25;20.40;86.90
16643;DHT22;8435;52.184;5.406;2023-07-16T02:28:52;20.50;87.20
16643;DHT22;8435;52.184;5.406;2023-07-16T02:31:19;20.40;87.30
16643;DHT22;8435;52.184;5.406;2023-07-16T02:33:46;20.40;87.40
16643;DHT22;8435;52.184;5.406;2023-07-16T02:36:14;20.40;87.60
16643;DHT22;8435;52.184;5.406;2023-07-16T02:38:44;20.40;87.80
16643;DHT22;8435;52.184;5.406;2023-07-16T02:41:10;20.40;87.90
16643;DHT22;8435;52.184;5.406;2023-07-16T02:43:37;20.40;88.00
16643;DHT22;8435;52.184;5.406;2023-07-16T02:46:04;20.40;88.10
16643;DHT22;8435;52.184;5.406;2023-07-16T02:48:31;20.40;88.20
16643;DHT22;8435;52.184;5.406;2023-07-16T02:50:58;20.40;88.40
16643;DHT22;8435;52.184;5.406;2023-07-16T02:53:26;20.40;88.50
16643;DHT22;8435;52.184;5.406;2023-07-16T02:55:53;20.40;88.60
16643;DHT22;8435;52.184;5.406;2023-07-16T02:58:22;20.40;88.60
16643;DHT22;8435;52.184;5.406;2023-07-16T03:00:49;20.40;89.10
16643;DHT22;8435;52.184;5.406;2023-07-16T03:03:16;20.40;88.80
16643;DHT22;8435;52.184;5.406;2023-07-16T03:05:43;20.40;88.80
16643;DHT22;8435;52.184;5.406;2023-07-16T03:08:09;20.40;88.90
16643;DHT22;8435;52.184;5.406;2023-07-16T03:10:38;20.40;89.10
16643;DHT22;8435;52.184;5.406;2023-07-16T03:13:04;20.40;89.20
16643;DHT22;8435;52.184;5.406;2023-07-16T03:15:31;20.30;89.10
16643;DHT22;8435;52.184;5.406;2023-07-16T03:17:58;20.30;89.30
16643;DHT22;8435;52.184;5.406;2023-07-16T03:20:25;20.30;89.20
16643;DHT22;8435;52.184;5.406;2023-07-16T03:22:52;20.30;89.30
16643;DHT22;8435;52.184;5.406;2023-07-16T03:25:19;20.30;89.40
16643;DHT22;8435;52.184;5.406;2023-07-16T03:27:47;20.20;89.30
16643;DHT22;8435;52.184;5.406;2023-07-16T03:30:14;20.20;89.50
16643;DHT22;8435;52.184;5.406;2023-07-16T03:32:41;20.30;89.50
16643;DHT22;8435;52.184;5.406;2023-07-16T03:35:08;20.20;89.60
16643;DHT22;8435;52.184;5.406;2023-07-16T03:37:35;20.20;89.70
16643;DHT22;8435;52.184;5.406;2023-07-16T03:40:12;20.20;89.70
16643;DHT22;8435;52.184;5.406;2023-07-16T03:42:40;20.10;90.00
16643;DHT22;8435;52.184;5.406;2023-07-16T03:45:09;20.20;90.20
16643;DHT22;8435;52.184;5.406;2023-07-16T03:47:36;20.10;90.00
16643;DHT22;8435;52.184;5.406;2023-07-16T03:50:04;20.10;90.00
16643;DHT22;8435;52.184;5.406;2023-07-16T03:52:31;20.10;90.00
16643;DHT22;8435;52.184;5.406;2023-07-16T03:55:00;20.10;90.00
16643;DHT22;8435;52.184;5.406;2023-07-16T03:57:28;20.10;90.00
16643;DHT22;8435;52.184;5.406;2023-07-16T03:59:55;20.10;90.00
16643;DHT22;8435;52.184;5.406;2023-07-16T04:02:23;20.10;90.00
16643;DHT22;8435;52.184;5.406;2023-07-16T04:04:50;20.10;90.10
16643;DHT22;8435;52.184;5.406;2023-07-16T04:07:17;20.10;90.00
16643;DHT22;8435;52.184;5.406;2023-07-16T04:09:44;20.00;90.00
16643;DHT22;8435;52.184;5.406;2023-07-16T04:12:11;20.00;90.10
16643;DHT22;8435;52.184;5.406;2023-07-16T04:14:38;20.10;90.10
16643;DHT22;8435;52.184;5.406;2023-07-16T04:17:05;20.10;90.10
16643;DHT22;8435;52.184;5.406;2023-07-16T04:19:33;20.10;90.10
16643;DHT22;8435;52.184;5.406;2023-07-16T04:22:00;20.10;90.20
16643;DHT22;8435;52.184;5.406;2023-07-16T04:24:27;20.10;90.40
16643;DHT22;8435;52.184;5.406;2023-07-16T04:26:54;20.10;90.20
16643;DHT22;8435;52.184;5.406;2023-07-16T04:29:21;20.10;90.20
16643;DHT22;8435;52.184;5.406;2023-07-16T04:31:48;20.10;90.20
16643;DHT22;8435;52.184;5.406;2023-07-16T04:34:27;20.10;90.20
16643;DHT22;8435;52.184;5.406;2023-07-16T04:36:55;20.10;90.20
16643;DHT22;8435;52.184;5.406;2023-07-16T04:39:22;20.10;90.30
16643;DHT22;8435;52.184;5.406;2023-07-16T04:41:49;20.10;90.30
16643;DHT22;8435;52.184;5.406;2023-07-16T04:44:16;20.10;90.30
16643;DHT22;8435;52.184;5.406;2023-07-16T04:46:42;20.10;90.30
16643;DHT22;8435;52.184;5.406;2023-07-16T04:49:12;20.10;90.20
16643;DHT22;8435;52.184;5.406;2023-07-16T04:51:39;20.20;90.30
16643;DHT22;8435;52.184;5.406;2023-07-16T04:54:07;20.20;90.30
16643;DHT22;8435;52.184;5.406;2023-07-16T04:56:34;20.20;90.30
16643;DHT22;8435;52.184;5.406;2023-07-16T04:59:01;20.20;90.30
16643;DHT22;8435;52.184;5.406;2023-07-16T05:01:28;20.20;90.20
16643;DHT22;8435;52.184;5.406;2023-07-16T05:03:55;20.30;90.50
16643;DHT22;8435;52.184;5.406;2023-07-16T05:06:22;20.30;90.10
16643;DHT22;8435;52.184;5.406;2023-07-16T05:08:51;20.30;90.00
16643;DHT22;8435;52.184;5.406;2023-07-16T05:11:20;20.30;90.00
16643;DHT22;8435;52.184;5.406;2023-07-16T05:13:51;20.30;90.00
16643;DHT22;8435;52.184;5.406;2023-07-16T05:16:18;20.40;89.90
16643;DHT22;8435;52.184;5.406;2023-07-16T05:18:44;20.40;89.80
16643;DHT22;8435;52.184;5.406;2023-07-16T05:21:13;20.40;89.70
16643;DHT22;8435;52.184;5.406;2023-07-16T05:23:39;20.40;89.50
16643;DHT22;8435;52.184;5.406;2023-07-16T05:26:06;20.30;89.50
16643;DHT22;8435;52.184;5.406;2023-07-16T05:28:36;20.40;89.50
16643;DHT22;8435;52.184;5.406;2023-07-16T05:31:03;20.40;89.40
16643;DHT22;8435;52.184;5.406;2023-07-16T05:33:30;20.40;89.30
16643;DHT22;8435;52.184;5.406;2023-07-16T05:35:57;20.40;89.30
16643;DHT22;8435;52.184;5.406;2023-07-16T05:38:24;20.40;89.20
16643;DHT22;8435;52.184;5.406;2023-07-16T05:40:51;20.40;89.00
16643;DHT22;8435;52.184;5.406;2023-07-16T05:43:18;20.40;89.00
16643;DHT22;8435;52.184;5.406;2023-07-16T05:45:46;20.50;89.10
16643;DHT22;8435;52.184;5.406;2023-07-16T05:48:12;20.50;89.00
16643;DHT22;8435;52.184;5.406;2023-07-16T05:50:39;20.60;89.20
16643;DHT22;8435;52.184;5.406;2023-07-16T05:53:06;20.70;89.00
16643;DHT22;8435;52.184;5.406;2023-07-16T05:55:33;20.80;88.60
16643;DHT22;8435;52.184;5.406;2023-07-16T05:58:00;20.80;88.30
16643;DHT22;8435;52.184;5.406;2023-07-16T06:00:27;20.90;87.80
16643;DHT22;8435;52.184;5.406;2023-07-16T06:02:55;20.90;87.50
16643;DHT22;8435;52.184;5.406;2023-07-16T06:05:22;21.00;87.30
16643;DHT22;8435;52.184;5.406;2023-07-16T06:07:50;21.00;87.30
16643;DHT22;8435;52.184;5.406;2023-07-16T06:10:17;21.00;87.40
16643;DHT22;8435;52.184;5.406;2023-07-16T06:12:44;21.00;87.50
16643;DHT22;8435;52.184;5.406;2023-07-16T06:15:13;21.10;87.60
16643;DHT22;8435;52.184;5.406;2023-07-16T06:17:40;21.10;87.50
16643;DHT22;8435;52.184;5.406;2023-07-16T06:20:08;21.20;87.30
16643;DHT22;8435;52.184;5.406;2023-07-16T06:22:37;21.20;87.20
16643;DHT22;8435;52.184;5.406;2023-07-16T06:25:04;21.30;87.00
16643;DHT22;8435;52.184;5.406;2023-07-16T06:27:31;21.30;86.80
16643;DHT22;8435;52.184;5.406;2023-07-16T06:29:58;21.30;86.90
16643;DHT22;8435;52.184;5.406;2023-07-16T06:32:25;21.40;87.10
16643;DHT22;8435;52.184;5.406;2023-07-16T06:34:52;21.40;86.90
16643;DHT22;8435;52.184;5.406;2023-07-16T06:37:20;21.40;87.50
16643;DHT22;8435;52.184;5.406;2023-07-16T06:39:49;21.50;87.00
16643;DHT22;8435;52.184;5.406;2023-07-16T06:42:15;21.70;87.60
16643;DHT22;8435;52.184;5.406;2023-07-16T06:44:42;21.90;88.00
16643;DHT22;8435;52.184;5.406;2023-07-16T06:47:09;22.20;88.40
16643;DHT22;8435;52.184;5.406;2023-07-16T06:49:36;22.60;88.50
16643;DHT22;8435;52.184;5.406;2023-07-16T06:52:03;23.10;87.50
16643;DHT22;8435;52.184;5.406;2023-07-16T06:54:31;23.60;85.60
16643;DHT22;8435;52.184;5.406;2023-07-16T06:56:58;24.00;84.70
16643;DHT22;8435;52.184;5.406;2023-07-16T06:59:25;24.50;84.00
16643;DHT22;8435;52.184;5.406;2023-07-16T07:01:52;24.90;83.30
16643;DHT22;8435;52.184;5.406;2023-07-16T07:04:19;25.30;82.20
16643;DHT22;8435;52.184;5.406;2023-07-16T07:06:45;25.70;81.00
16643;DHT22;8435;52.184;5.406;2023-07-16T07:09:12;26.10;78.60
16643;DHT22;8435;52.184;5.406;2023-07-16T07:11:40;26.40;77.30
16643;DHT22;8435;52.184;5.406;2023-07-16T07:14:07;26.70;74.70
16643;DHT22;8435;52.184;5.406;2023-07-16T07:16:34;27.00;74.50
16643;DHT22;8435;52.184;5.406;2023-07-16T07:19:01;27.20;72.90
16643;DHT22;8435;52.184;5.406;2023-07-16T07:21:28;27.30;71.70
16643;DHT22;8435;52.184;5.406;2023-07-16T07:23:55;27.30;70.80
16643;DHT22;8435;52.184;5.406;2023-07-16T07:26:22;27.20;69.40
16643;DHT22;8435;52.184;5.406;2023-07-16T07:28:50;27.20;69.90
16643;DHT22;8435;52.184;5.406;2023-07-16T07:31:17;27.00;69.20
16643;DHT22;8435;52.184;5.406;2023-07-16T07:33:44;27.00;70.10
16643;DHT22;8435;52.184;5.406;2023-07-16T07:36:10;26.90;70.80
16643;DHT22;8435;52.184;5.406;2023-07-16T07:38:37;26.90;70.40
16643;DHT22;8435;52.184;5.406;2023-07-16T07:41:06;26.90;69.60
16643;DHT22;8435;52.184;5.406;2023-07-16T07:43:33;26.80;68.80
16643;DHT22;8435;52.184;5.406;2023-07-16T07:46:03;26.70;68.80
16643;DHT22;8435;52.184;5.406;2023-07-16T07:48:31;26.70;69.00
16643;DHT22;8435;52.184;5.406;2023-07-16T07:51:00;26.60;69.30
16643;DHT22;8435;52.184;5.406;2023-07-16T07:53:27;26.50;68.90
16643;DHT22;8435;52.184;5.406;2023-07-16T07:55:54;26.50;68.90
16643;DHT22;8435;52.184;5.406;2023-07-16T07:58:21;26.30;68.60
16643;DHT22;8435;52.184;5.406;2023-07-16T08:00:48;26.10;69.00
16643;DHT22;8435;52.184;5.406;2023-07-16T08:03:16;25.90;69.90
16643;DHT22;8435;52.184;5.406;2023-07-16T08:05:47;25.70;69.70
16643;DHT22;8435;52.184;5.406;2023-07-16T08:08:14;25.50;70.30
16643;DHT22;8435;52.184;5.406;2023-07-16T08:10:42;25.30;71.30
16643;DHT22;8435;52.184;5.406;2023-07-16T08:13:11;25.30;72.20
16643;DHT22;8435;52.184;5.406;2023-07-16T08:15:38;25.30;73.30
16643;DHT22;8435;52.184;5.406;2023-07-16T08:18:05;25.40;72.90
16643;DHT22;8435;52.184;5.406;2023-07-16T08:20:33;25.50;73.10
16643;DHT22;8435;52.184;5.406;2023-07-16T08:23:02;25.70;73.20
16643;DHT22;8435;52.184;5.406;2023-07-16T08:25:29;25.80;73.10
16643;DHT22;8435;52.184;5.406;2023-07-16T08:27:56;26.00;72.60
16643;DHT22;8435;52.184;5.406;2023-07-16T08:30:22;26.20;71.60
16643;DHT22;8435;52.184;5.406;2023-07-16T08:32:49;26.20;71.30
16643;DHT22;8435;52.184;5.406;2023-07-16T08:35:16;26.30;72.60
16643;DHT22;8435;52.184;5.406;2023-07-16T08:37:46;26.40;72.10
16643;DHT22;8435;52.184;5.406;2023-07-16T08:40:13;26.50;71.40
16643;DHT22;8435;52.184;5.406;2023-07-16T08:42:41;26.60;70.90
16643;DHT22;8435;52.184;5.406;2023-07-16T08:45:11;26.70;70.10
16643;DHT22;8435;52.184;5.406;2023-07-16T08:47:38;26.70;69.30
16643;DHT22;8435;52.184;5.406;2023-07-16T08:50:06;26.60;68.60
16643;DHT22;8435;52.184;5.406;2023-07-16T08:52:33;26.50;68.70
16643;DHT22;8435;52.184;5.406;2023-07-16T08:55:02;26.40;68.60
16643;DHT22;8435;52.184;5.406;2023-07-16T08:57:29;26.20;69.20
16643;DHT22;8435;52.184;5.406;2023-07-16T08:59:57;26.00;70.50
16643;DHT22;8435;52.184;5.406;2023-07-16T09:02:24;25.90;70.50
16643;DHT22;8435;52.184;5.406;2023-07-16T09:04:51;25.80;71.30
16643;DHT22;8435;52.184;5.406;2023-07-16T09:07:18;25.80;71.70
16643;DHT22;8435;52.184;5.406;2023-07-16T09:09:55;25.80;71.30
16643;DHT22;8435;52.184;5.406;2023-07-16T09:12:26;25.80;71.20
16643;DHT22;8435;52.184;5.406;2023-07-16T09:14:55;25.80;71.00
16643;DHT22;8435;52.184;5.406;2023-07-16T09:17:22;25.70;70.70
16643;DHT22;8435;52.184;5.406;2023-07-16T09:19:50;25.70;71.00
16643;DHT22;8435;52.184;5.406;2023-07-16T09:22:17;25.60;71.20
16643;DHT22;8435;52.184;5.406;2023-07-16T09:24:45;25.60;71.50
16643;DHT22;8435;52.184;5.406;2023-07-16T09:27:12;25.60;71.40
16643;DHT22;8435;52.184;5.406;2023-07-16T09:29:42;25.50;71.30
16643;DHT22;8435;52.184;5.406;2023-07-16T09:32:09;25.50;72.10
16643;DHT22;8435;52.184;5.406;2023-07-16T09:34:35;25.40;72.10
16643;DHT22;8435;52.184;5.406;2023-07-16T09:37:04;25.30;71.60
16643;DHT22;8435;52.184;5.406;2023-07-16T09:39:32;25.30;71.80
16643;DHT22;8435;52.184;5.406;2023-07-16T09:42:00;25.20;72.00
16643;DHT22;8435;52.184;5.406;2023-07-16T09:44:29;25.20;72.90
16643;DHT22;8435;52.184;5.406;2023-07-16T09:46:58;25.10;73.60
16643;DHT22;8435;52.184;5.406;2023-07-16T09:49:26;25.20;74.10
16643;DHT22;8435;52.184;5.406;2023-07-16T09:51:56;25.30;73.30
16643;DHT22;8435;52.184;5.406;2023-07-16T09:54:25;25.30;72.90
16643;DHT22;8435;52.184;5.406;2023-07-16T09:56:56;25.40;72.70
16643;DHT22;8435;52.184;5.406;2023-07-16T09:59:27;25.40;72.80
16643;DHT22;8435;52.184;5.406;2023-07-16T10:01:55;25.40;72.70
16643;DHT22;8435;52.184;5.406;2023-07-16T10:04:24;25.30;72.40
16643;DHT22;8435;52.184;5.406;2023-07-16T10:06:52;25.30;73.00
16643;DHT22;8435;52.184;5.406;2023-07-16T10:09:50;25.30;72.90
16643;DHT22;8435;52.184;5.406;2023-07-16T10:12:19;25.30;73.00
16643;DHT22;8435;52.184;5.406;2023-07-16T10:14:47;25.20;72.50
16643;DHT22;8435;52.184;5.406;2023-07-16T10:17:16;25.20;72.80
16643;DHT22;8435;52.184;5.406;2023-07-16T10:19:48;25.20;73.40
16643;DHT22;8435;52.184;5.406;2023-07-16T10:22:15;25.20;73.70
16643;DHT22;8435;52.184;5.406;2023-07-16T10:24:42;25.20;73.50
16643;DHT22;8435;52.184;5.406;2023-07-16T10:27:09;25.30;73.50
16643;DHT22;8435;52.184;5.406;2023-07-16T10:29:40;25.30;72.80
16643;DHT22;8435;52.184;5.406;2023-07-16T10:32:07;25.30;72.50
16643;DHT22;8435;52.184;5.406;2023-07-16T10:34:35;25.30;72.40
16643;DHT22;8435;52.184;5.406;2023-07-16T10:37:03;25.30;72.40
16643;DHT22;8435;52.184;5.406;2023-07-16T10:39:32;25.20;72.40
16643;DHT22;8435;52.184;5.406;2023-07-16T10:41:59;25.10;72.70
16643;DHT22;8435;52.184;5.406;2023-07-16T10:44:27;25.10;73.20
16643;DHT22;8435;52.184;5.406;2023-07-16T10:46:54;25.00;73.80
16643;DHT22;8435;52.184;5.406;2023-07-16T10:49:27;25.00;73.70
16643;DHT22;8435;52.184;5.406;2023-07-16T10:51:54;25.00;74.10
16643;DHT22;8435;52.184;5.406;2023-07-16T10:54:25;25.00;74.50
16643;DHT22;8435;52.184;5.406;2023-07-16T10:56:52;25.10;74.40
16643;DHT22;8435;52.184;5.406;2023-07-16T10:59:19;25.10;74.70
16643;DHT22;8435;52.184;5.406;2023-07-16T11:01:46;25.20;74.40
16643;DHT22;8435;52.184;5.406;2023-07-16T11:04:13;25.20;74.30
16643;DHT22;8435;52.184;5.406;2023-07-16T11:06:40;25.30;73.90
16643;DHT22;8435;52.184;5.406;2023-07-16T11:09:13;25.30;73.80
16643;DHT22;8435;52.184;5.406;2023-07-16T11:11:41;25.40;74.60
16643;DHT22;8435;52.184;5.406;2023-07-16T11:14:11;25.40;73.70
16643;DHT22;8435;52.184;5.406;2023-07-16T11:16:38;25.40;73.60
16643;DHT22;8435;52.184;5.406;2023-07-16T11:19:08;25.50;73.60
16643;DHT22;8435;52.184;5.406;2023-07-16T11:21:35;25.50;73.50
16643;DHT22;8435;52.184;5.406;2023-07-16T11:24:09;25.50;73.70
16643;DHT22;8435;52.184;5.406;2023-07-16T11:26:36;25.60;72.50
16643;DHT22;8435;52.184;5.406;2023-07-16T11:29:14;25.60;73.00
16643;DHT22;8435;52.184;5.406;2023-07-16T11:31:41;25.60;73.30
16643;DHT22;8435;52.184;5.406;2023-07-16T11:34:08;25.60;73.50
16643;DHT22;8435;52.184;5.406;2023-07-16T11:36:39;25.60;74.00
16643;DHT22;8435;52.184;5.406;2023-07-16T11:39:06;25.70;73.80
16643;DHT22;8435;52.184;5.406;2023-07-16T11:41:32;25.70;73.70
16643;DHT22;8435;52.184;5.406;2023-07-16T11:44:00;25.80;73.80
16643;DHT22;8435;52.184;5.406;2023-07-16T11:46:32;25.80;73.60
16643;DHT22;8435;52.184;5.406;2023-07-16T11:48:59;25.90;73.20
16643;DHT22;8435;52.184;5.406;2023-07-16T11:51:26;26.00;72.60
16643;DHT22;8435;52.184;5.406;2023-07-16T11:53:55;26.00;72.60
16643;DHT22;8435;52.184;5.406;2023-07-16T11:56:22;26.00;71.90
16643;DHT22;8435;52.184;5.406;2023-07-16T11:58:49;26.00;71.50
16643;DHT22;8435;52.184;5.406;2023-07-16T12:01:16;26.00;70.40
16643;DHT22;8435;52.184;5.406;2023-07-16T12:03:44;26.00;70.70
16643;DHT22;8435;52.184;5.406;2023-07-16T12:06:11;26.00;69.90
16643;DHT22;8435;52.184;5.406;2023-07-16T12:08:38;26.00;69.40
16643;DHT22;8435;52.184;5.406;2023-07-16T12:11:05;26.00;69.00
16643;DHT22;8435;52.184;5.406;2023-07-16T12:13:32;25.90;68.90
16643;DHT22;8435;52.184;5.406;2023-07-16T12:15:59;25.90;69.00
16643;DHT22;8435;52.184;5.406;2023-07-16T12:18:26;25.90;68.70
16643;DHT22;8435;52.184;5.406;2023-07-16T12:20:57;25.90;68.70
16643;DHT22;8435;52.184;5.406;2023-07-16T12:23:27;25.90;67.50
16643;DHT22;8435;52.184;5.406;2023-07-16T12:25:53;25.90;67.60
16643;DHT22;8435;52.184;5.406;2023-07-16T12:28:20;25.90;68.00
16643;DHT22;8435;52.184;5.406;2023-07-16T12:30:49;25.90;68.10
16643;DHT22;8435;52.184;5.406;2023-07-16T12:33:16;25.90;67.20
16643;DHT22;8435;52.184;5.406;2023-07-16T12:35:43;25.90;67.60
16643;DHT22;8435;52.184;5.406;2023-07-16T12:38:12;25.90;67.80
16643;DHT22;8435;52.184;5.406;2023-07-16T12:40:42;25.90;67.70
16643;DHT22;8435;52.184;5.406;2023-07-16T12:43:08;25.90;67.90
16643;DHT22;8435;52.184;5.406;2023-07-16T12:45:35;25.90;68.20
16643;DHT22;8435;52.184;5.406;2023-07-16T12:48:02;26.00;68.30
16643;DHT22;8435;52.184;5.406;2023-07-16T12:50:29;26.00;68.40
16643;DHT22;8435;52.184;5.406;2023-07-16T12:52:56;26.10;68.00
16643;DHT22;8435;52.184;5.406;2023-07-16T12:55:24;26.10;68.20
16643;DHT22;8435;52.184;5.406;2023-07-16T12:57:51;26.20;68.20
16643;DHT22;8435;52.184;5.406;2023-07-16T13:00:18;26.20;68.00
16643;DHT22;8435;52.184;5.406;2023-07-16T13:02:45;26.20;67.60
16643;DHT22;8435;52.184;5.406;2023-07-16T13:05:14;26.30;67.50
16643;DHT22;8435;52.184;5.406;2023-07-16T13:07:41;26.40;67.80
16643;DHT22;8435;52.184;5.406;2023-07-16T13:10:09;26.40;68.00
16643;DHT22;8435;52.184;5.406;2023-07-16T13:12:37;26.40;68.00
16643;DHT22;8435;52.184;5.406;2023-07-16T13:15:05;26.50;67.40
16643;DHT22;8435;52.184;5.406;2023-07-16T13:17:32;26.60;67.50
16643;DHT22;8435;52.184;5.406;2023-07-16T13:19:59;26.60;67.00
16643;DHT22;8435;52.184;5.406;2023-07-16T13:22:25;26.70;66.50
16643;DHT22;8435;52.184;5.406;2023-07-16T13:24:52;26.70;66.60
16643;DHT22;8435;52.184;5.406;2023-07-16T13:27:20;26.70;66.00
16643;DHT22;8435;52.184;5.406;2023-07-16T13:29:48;26.60;66.00
16643;DHT22;8435;52.184;5.406;2023-07-16T13:32:15;26.60;66.00
16643;DHT22;8435;52.184;5.406;2023-07-16T13:34:42;26.60;66.20
16643;DHT22;8435;52.184;5.406;2023-07-16T13:37:12;26.50;66.00
16643;DHT22;8435;52.184;5.406;2023-07-16T13:39:41;26.50;66.00
16643;DHT22;8435;52.184;5.406;2023-07-16T13:42:11;26.50;66.10
16643;DHT22;8435;52.184;5.406;2023-07-16T13:44:38;26.50;66.30
16643;DHT22;8435;52.184;5.406;2023-07-16T13:47:06;26.50;66.50
16643;DHT22;8435;52.184;5.406;2023-07-16T13:49:35;26.50;65.90
16643;DHT22;8435;52.184;5.406;2023-07-16T13:52:02;26.50;65.80
16643;DHT22;8435;52.184;5.406;2023-07-16T13:54:29;26.40;65.80
16643;DHT22;8435;52.184;5.406;2023-07-16T13:56:56;26.40;65.80
16643;DHT22;8435;52.184;5.406;2023-07-16T13:59:22;26.40;65.60
16643;DHT22;8435;52.184;5.406;2023-07-16T14:01:59;26.40;65.60
16643;DHT22;8435;52.184;5.406;2023-07-16T14:04:30;26.40;65.10
16643;DHT22;8435;52.184;5.406;2023-07-16T14:06:56;26.40;65.90
16643;DHT22;8435;52.184;5.406;2023-07-16T14:09:23;26.40;65.40
16643;DHT22;8435;52.184;5.406;2023-07-16T14:11:50;26.40;65.70
16643;DHT22;8435;52.184;5.406;2023-07-16T14:14:17;26.40;65.10
16643;DHT22;8435;52.184;5.406;2023-07-16T14:16:44;26.40;64.80
16643;DHT22;8435;52.184;5.406;2023-07-16T14:19:11;26.40;65.10
16643;DHT22;8435;52.184;5.406;2023-07-16T14:21:39;26.40;64.90
16643;DHT22;8435;52.184;5.406;2023-07-16T14:24:07;26.40;65.00
16643;DHT22;8435;52.184;5.406;2023-07-16T14:26:34;26.40;64.80
16643;DHT22;8435;52.184;5.406;2023-07-16T14:29:01;26.40;65.00
16643;DHT22;8435;52.184;5.406;2023-07-16T14:31:28;26.50;64.70
16643;DHT22;8435;52.184;5.406;2023-07-16T14:33:55;26.40;64.70
16643;DHT22;8435;52.184;5.406;2023-07-16T14:36:22;26.50;64.70
16643;DHT22;8435;52.184;5.406;2023-07-16T14:38:50;26.40;64.50
16643;DHT22;8435;52.184;5.406;2023-07-16T14:41:17;26.40;64.60
16643;DHT22;8435;52.184;5.406;2023-07-16T14:43:45;26.40;64.10
16643;DHT22;8435;52.184;5.406;2023-07-16T14:46:15;26.40;64.50
16643;DHT22;8435;52.184;5.406;2023-07-16T14:48:42;26.40;65.00
16643;DHT22;8435;52.184;5.406;2023-07-16T14:51:11;26.40;65.40
16643;DHT22;8435;52.184;5.406;2023-07-16T14:53:38;26.40;65.60
16643;DHT22;8435;52.184;5.406;2023-07-16T14:56:06;26.40;65.50
16643;DHT22;8435;52.184;5.406;2023-07-16T14:58:34;26.40;65.30
16643;DHT22;8435;52.184;5.406;2023-07-16T15:01:02;26.40;65.20
16643;DHT22;8435;52.184;5.406;2023-07-16T15:03:34;26.40;65.40
16643;DHT22;8435;52.184;5.406;2023-07-16T15:06:01;26.40;65.50
16643;DHT22;8435;52.184;5.406;2023-07-16T15:08:28;26.40;65.60
16643;DHT22;8435;52.184;5.406;2023-07-16T15:10:56;26.40;65.40
16643;DHT22;8435;52.184;5.406;2023-07-16T15:13:24;26.40;65.40
16643;DHT22;8435;52.184;5.406;2023-07-16T15:15:53;26.40;65.70
16643;DHT22;8435;52.184;5.406;2023-07-16T15:18:20;26.40;65.80
16643;DHT22;8435;52.184;5.406;2023-07-16T15:20:47;26.50;65.70
16643;DHT22;8435;52.184;5.406;2023-07-16T15:23:14;26.50;65.70
16643;DHT22;8435;52.184;5.406;2023-07-16T15:25:41;26.50;64.80
16643;DHT22;8435;52.184;5.406;2023-07-16T15:28:09;26.50;64.80
16643;DHT22;8435;52.184;5.406;2023-07-16T15:30:38;26.50;64.90
16643;DHT22;8435;52.184;5.406;2023-07-16T15:33:04;26.50;65.20
16643;DHT22;8435;52.184;5.406;2023-07-16T15:35:31;26.50;65.20
16643;DHT22;8435;52.184;5.406;2023-07-16T15:38:01;26.60;65.00
16643;DHT22;8435;52.184;5.406;2023-07-16T15:40:32;26.60;65.30
16643;DHT22;8435;52.184;5.406;2023-07-16T15:42:59;26.70;65.10
16643;DHT22;8435;52.184;5.406;2023-07-16T15:45:26;26.70;65.20
16643;DHT22;8435;52.184;5.406;2023-07-16T15:47:54;26.80;65.10
16643;DHT22;8435;52.184;5.406;2023-07-16T15:50:24;26.90;64.90